sensor_id;sensor_type;location;lat;lon;timestamp;P1;durP1;ratioP1;P2;durP2;ratioP2
73919;SDS011;62266;53.348;-1.496;2023-08-17T00:00:25;4.07;;;3.33;;
73919;SDS011;62266;53.348;-1.496;2023-08-17T00:03:10;4.32;;;3.70;;
73919;SDS011;62266;53.348;-1.496;2023-08-17T00:05:55;5.20;;;3.47;;
73919;SDS011;62266;53.348;-1.496;2023-08-17T00:08:39;4.57;;;3.78;;
73919;SDS011;62266;53.348;-1.496;2023-08-17T00:11:23;6.57;;;3.57;;
73919;SDS011;62266;53.348;-1.496;2023-08-17T00:14:07;6.15;;;4.25;;
73919;SDS011;62266;53.348;-1.496;2023-08-17T00:16:51;4.53;;;3.50;;
73919;SDS011;62266;53.348;-1.496;2023-08-17T00:19:35;6.30;;;4.07;;
73919;SDS011;62266;53.348;-1.496;2023-08-17T00:22:19;6.28;;;3.75;;
73919;SDS011;62266;53.348;-1.496;2023-08-17T00:25:03;7.00;;;4.00;;
73919;SDS011;62266;53.348;-1.496;2023-08-17T00:27:48;4.75;;;4.05;;
73919;SDS011;62266;53.348;-1.496;2023-08-17T00:30:32;8.23;;;4.07;;
73919;SDS011;62266;53.348;-1.496;2023-08-17T00:33:20;6.75;;;4.40;;
73919;SDS011;62266;53.348;-1.496;2023-08-17T00:36:04;6.13;;;4.32;;
73919;SDS011;62266;53.348;-1.496;2023-08-17T00:38:48;8.47;;;5.40;;
73919;SDS011;62266;53.348;-1.496;2023-08-17T00:41:32;9.38;;;5.70;;
73919;SDS011;62266;53.348;-1.496;2023-08-17T00:44:16;11.55;;;6.88;;
73919;SDS011;62266;53.348;-1.496;2023-08-17T00:47:00;15.68;;;9.10;;
73919;SDS011;62266;53.348;-1.496;2023-08-17T00:49:44;16.00;;;9.88;;
73919;SDS011;62266;53.348;-1.496;2023-08-17T00:52:29;22.00;;;13.47;;
73919;SDS011;62266;53.348;-1.496;2023-08-17T00:55:14;23.88;;;13.48;;
73919;SDS011;62266;53.348;-1.496;2023-08-17T00:57:58;20.40;;;13.75;;
73919;SDS011;62266;53.348;-1.496;2023-08-17T01:00:42;22.65;;;12.88;;
73919;SDS011;62266;53.348;-1.496;2023-08-17T01:03:28;23.55;;;14.73;;
73919;SDS011;62266;53.348;-1.496;2023-08-17T01:06:13;22.40;;;13.40;;
73919;SDS011;62266;53.348;-1.496;2023-08-17T01:08:57;26.00;;;14.68;;
73919;SDS011;62266;53.348;-1.496;2023-08-17T01:11:45;25.05;;;14.82;;
73919;SDS011;62266;53.348;-1.496;2023-08-17T01:14:38;26.90;;;15.50;;
73919;SDS011;62266;53.348;-1.496;2023-08-17T01:20:31;25.53;;;14.93;;
73919;SDS011;62266;53.348;-1.496;2023-08-17T01:23:15;28.52;;;15.90;;
73919;SDS011;62266;53.348;-1.496;2023-08-17T01:25:59;28.02;;;16.85;;
73919;SDS011;62266;53.348;-1.496;2023-08-17T01:28:44;28.90;;;15.82;;
73919;SDS011;62266;53.348;-1.496;2023-08-17T01:31:32;27.70;;;17.05;;
73919;SDS011;62266;53.348;-1.496;2023-08-17T01:34:21;33.03;;;18.07;;
73919;SDS011;62266;53.348;-1.496;2023-08-17T01:37:07;32.53;;;16.83;;
73919;SDS011;62266;53.348;-1.496;2023-08-17T01:39:52;26.95;;;16.65;;
73919;SDS011;62266;53.348;-1.496;2023-08-17T01:42:39;30.52;;;16.73;;
73919;SDS011;62266;53.348;-1.496;2023-08-17T01:45:24;36.40;;;18.60;;
73919;SDS011;62266;53.348;-1.496;2023-08-17T01:48:08;31.03;;;17.23;;
73919;SDS011;62266;53.348;-1.496;2023-08-17T01:50:52;35.40;;;18.40;;
73919;SDS011;62266;53.348;-1.496;2023-08-17T01:53:36;35.40;;;18.25;;
73919;SDS011;62266;53.348;-1.496;2023-08-17T01:56:20;36.90;;;18.65;;
73919;SDS011;62266;53.348;-1.496;2023-08-17T01:59:04;41.55;;;20.63;;
73919;SDS011;62266;53.348;-1.496;2023-08-17T02:01:48;36.73;;;20.40;;
73919;SDS011;62266;53.348;-1.496;2023-08-17T02:04:32;38.10;;;19.08;;
73919;SDS011;62266;53.348;-1.496;2023-08-17T02:07:16;37.97;;;19.50;;
73919;SDS011;62266;53.348;-1.496;2023-08-17T02:10:00;41.95;;;20.58;;
73919;SDS011;62266;53.348;-1.496;2023-08-17T02:12:44;41.95;;;21.08;;
73919;SDS011;62266;53.348;-1.496;2023-08-17T02:15:28;40.93;;;20.20;;
73919;SDS011;62266;53.348;-1.496;2023-08-17T02:18:12;45.92;;;19.65;;
73919;SDS011;62266;53.348;-1.496;2023-08-17T02:20:56;39.47;;;19.65;;
73919;SDS011;62266;53.348;-1.496;2023-08-17T02:23:40;39.60;;;19.20;;
73919;SDS011;62266;53.348;-1.496;2023-08-17T02:26:23;48.58;;;22.27;;
73919;SDS011;62266;53.348;-1.496;2023-08-17T02:29:07;45.70;;;21.73;;
73919;SDS011;62266;53.348;-1.496;2023-08-17T02:31:51;48.55;;;20.52;;
73919;SDS011;62266;53.348;-1.496;2023-08-17T02:34:35;41.83;;;20.45;;
73919;SDS011;62266;53.348;-1.496;2023-08-17T02:37:19;38.08;;;19.30;;
73919;SDS011;62266;53.348;-1.496;2023-08-17T02:40:03;43.63;;;20.67;;
73919;SDS011;62266;53.348;-1.496;2023-08-17T02:42:48;43.07;;;20.17;;
73919;SDS011;62266;53.348;-1.496;2023-08-17T02:45:33;44.20;;;21.23;;
73919;SDS011;62266;53.348;-1.496;2023-08-17T02:48:17;49.97;;;21.70;;
73919;SDS011;62266;53.348;-1.496;2023-08-17T02:51:02;44.75;;;20.75;;
73919;SDS011;62266;53.348;-1.496;2023-08-17T02:53:46;41.42;;;19.83;;
73919;SDS011;62266;53.348;-1.496;2023-08-17T02:56:30;47.10;;;21.00;;
73919;SDS011;62266;53.348;-1.496;2023-08-17T02:59:14;44.55;;;22.95;;
73919;SDS011;62266;53.348;-1.496;2023-08-17T03:01:58;41.20;;;20.23;;
73919;SDS011;62266;53.348;-1.496;2023-08-17T03:04:41;46.40;;;20.60;;
73919;SDS011;62266;53.348;-1.496;2023-08-17T03:07:25;44.92;;;21.60;;
73919;SDS011;62266;53.348;-1.496;2023-08-17T03:10:09;41.67;;;19.40;;
73919;SDS011;62266;53.348;-1.496;2023-08-17T03:12:53;43.85;;;20.27;;
73919;SDS011;62266;53.348;-1.496;2023-08-17T03:15:37;44.35;;;21.10;;
73919;SDS011;62266;53.348;-1.496;2023-08-17T03:18:24;48.03;;;22.05;;
73919;SDS011;62266;53.348;-1.496;2023-08-17T03:21:08;43.33;;;20.98;;
73919;SDS011;62266;53.348;-1.496;2023-08-17T03:23:52;51.90;;;21.87;;
73919;SDS011;62266;53.348;-1.496;2023-08-17T03:26:35;45.83;;;22.17;;
73919;SDS011;62266;53.348;-1.496;2023-08-17T03:29:19;47.47;;;22.80;;
73919;SDS011;62266;53.348;-1.496;2023-08-17T03:32:03;52.55;;;23.55;;
73919;SDS011;62266;53.348;-1.496;2023-08-17T03:34:48;56.58;;;23.77;;
73919;SDS011;62266;53.348;-1.496;2023-08-17T03:37:32;50.87;;;24.37;;
73919;SDS011;62266;53.348;-1.496;2023-08-17T03:40:16;51.03;;;23.80;;
73919;SDS011;62266;53.348;-1.496;2023-08-17T03:43:00;56.25;;;24.98;;
73919;SDS011;62266;53.348;-1.496;2023-08-17T03:45:44;52.78;;;24.75;;
73919;SDS011;62266;53.348;-1.496;2023-08-17T03:48:28;59.85;;;27.48;;
73919;SDS011;62266;53.348;-1.496;2023-08-17T03:51:11;50.30;;;25.17;;
73919;SDS011;62266;53.348;-1.496;2023-08-17T03:53:55;52.42;;;25.83;;
73919;SDS011;62266;53.348;-1.496;2023-08-17T03:56:39;58.40;;;27.58;;
73919;SDS011;62266;53.348;-1.496;2023-08-17T03:59:23;59.90;;;27.85;;
73919;SDS011;62266;53.348;-1.496;2023-08-17T04:02:08;56.58;;;29.08;;
73919;SDS011;62266;53.348;-1.496;2023-08-17T04:04:52;57.83;;;27.33;;
73919;SDS011;62266;53.348;-1.496;2023-08-17T04:07:36;61.45;;;28.33;;
73919;SDS011;62266;53.348;-1.496;2023-08-17T04:10:21;56.47;;;25.67;;
73919;SDS011;62266;53.348;-1.496;2023-08-17T04:13:05;57.60;;;28.77;;
73919;SDS011;62266;53.348;-1.496;2023-08-17T04:15:49;58.90;;;28.75;;
73919;SDS011;62266;53.348;-1.496;2023-08-17T04:18:33;48.77;;;26.03;;
73919;SDS011;62266;53.348;-1.496;2023-08-17T04:21:17;58.63;;;26.48;;
73919;SDS011;62266;53.348;-1.496;2023-08-17T04:24:01;52.40;;;26.55;;
73919;SDS011;62266;53.348;-1.496;2023-08-17T04:26:45;53.40;;;25.83;;
73919;SDS011;62266;53.348;-1.496;2023-08-17T04:29:29;52.25;;;24.55;;
73919;SDS011;62266;53.348;-1.496;2023-08-17T04:32:14;48.23;;;23.67;;
73919;SDS011;62266;53.348;-1.496;2023-08-17T04:34:59;46.30;;;22.08;;
73919;SDS011;62266;53.348;-1.496;2023-08-17T04:37:43;42.97;;;21.23;;
73919;SDS011;62266;53.348;-1.496;2023-08-17T04:40:27;44.20;;;21.83;;
73919;SDS011;62266;53.348;-1.496;2023-08-17T04:43:11;43.95;;;23.27;;
73919;SDS011;62266;53.348;-1.496;2023-08-17T04:45:55;42.23;;;20.50;;
73919;SDS011;62266;53.348;-1.496;2023-08-17T04:48:39;48.35;;;21.55;;
73919;SDS011;62266;53.348;-1.496;2023-08-17T04:51:24;45.60;;;22.67;;
73919;SDS011;62266;53.348;-1.496;2023-08-17T04:54:08;41.40;;;20.85;;
73919;SDS011;62266;53.348;-1.496;2023-08-17T04:56:52;40.42;;;19.85;;
73919;SDS011;62266;53.348;-1.496;2023-08-17T04:59:36;43.57;;;21.27;;
73919;SDS011;62266;53.348;-1.496;2023-08-17T05:02:20;37.05;;;19.63;;
73919;SDS011;62266;53.348;-1.496;2023-08-17T05:05:04;42.70;;;20.73;;
73919;SDS011;62266;53.348;-1.496;2023-08-17T05:07:49;41.40;;;20.33;;
73919;SDS011;62266;53.348;-1.496;2023-08-17T05:10:34;43.17;;;19.83;;
73919;SDS011;62266;53.348;-1.496;2023-08-17T05:13:18;38.27;;;19.67;;
73919;SDS011;62266;53.348;-1.496;2023-08-17T05:16:03;41.83;;;19.50;;
73919;SDS011;62266;53.348;-1.496;2023-08-17T05:18:47;37.67;;;19.98;;
73919;SDS011;62266;53.348;-1.496;2023-08-17T05:21:31;33.88;;;17.92;;
73919;SDS011;62266;53.348;-1.496;2023-08-17T05:24:15;34.45;;;17.45;;
73919;SDS011;62266;53.348;-1.496;2023-08-17T05:26:59;36.63;;;18.03;;
73919;SDS011;62266;53.348;-1.496;2023-08-17T05:29:43;36.53;;;18.75;;
73919;SDS011;62266;53.348;-1.496;2023-08-17T05:32:27;32.58;;;17.83;;
73919;SDS011;62266;53.348;-1.496;2023-08-17T05:35:11;31.52;;;16.67;;
73919;SDS011;62266;53.348;-1.496;2023-08-17T05:37:55;28.35;;;14.70;;
73919;SDS011;62266;53.348;-1.496;2023-08-17T05:40:39;28.27;;;15.33;;
73919;SDS011;62266;53.348;-1.496;2023-08-17T05:43:23;23.73;;;13.45;;
73919;SDS011;62266;53.348;-1.496;2023-08-17T05:46:07;27.10;;;13.88;;
73919;SDS011;62266;53.348;-1.496;2023-08-17T05:48:51;22.17;;;11.55;;
73919;SDS011;62266;53.348;-1.496;2023-08-17T05:51:35;24.45;;;13.70;;
73919;SDS011;62266;53.348;-1.496;2023-08-17T05:54:19;26.10;;;13.40;;
73919;SDS011;62266;53.348;-1.496;2023-08-17T05:57:04;20.55;;;11.25;;
73919;SDS011;62266;53.348;-1.496;2023-08-17T05:59:48;18.27;;;10.55;;
73919;SDS011;62266;53.348;-1.496;2023-08-17T06:02:32;21.73;;;11.68;;
73919;SDS011;62266;53.348;-1.496;2023-08-17T06:05:17;19.15;;;10.88;;
73919;SDS011;62266;53.348;-1.496;2023-08-17T06:08:01;18.10;;;10.67;;
73919;SDS011;62266;53.348;-1.496;2023-08-17T06:10:46;19.48;;;10.73;;
73919;SDS011;62266;53.348;-1.496;2023-08-17T06:13:30;18.45;;;10.63;;
73919;SDS011;62266;53.348;-1.496;2023-08-17T06:16:13;17.27;;;10.65;;
73919;SDS011;62266;53.348;-1.496;2023-08-17T06:18:57;21.65;;;11.10;;
73919;SDS011;62266;53.348;-1.496;2023-08-17T06:21:41;16.47;;;10.23;;
73919;SDS011;62266;53.348;-1.496;2023-08-17T06:24:26;20.95;;;10.00;;
73919;SDS011;62266;53.348;-1.496;2023-08-17T06:27:13;13.57;;;9.48;;
73919;SDS011;62266;53.348;-1.496;2023-08-17T06:29:58;14.50;;;9.00;;
73919;SDS011;62266;53.348;-1.496;2023-08-17T06:32:42;16.73;;;10.20;;
73919;SDS011;62266;53.348;-1.496;2023-08-17T06:35:26;14.50;;;8.67;;
73919;SDS011;62266;53.348;-1.496;2023-08-17T06:38:10;18.13;;;9.45;;
73919;SDS011;62266;53.348;-1.496;2023-08-17T06:40:54;17.35;;;8.15;;
73919;SDS011;62266;53.348;-1.496;2023-08-17T06:43:38;13.93;;;8.70;;
73919;SDS011;62266;53.348;-1.496;2023-08-17T06:46:22;13.10;;;8.65;;
73919;SDS011;62266;53.348;-1.496;2023-08-17T06:49:06;16.70;;;8.73;;
73919;SDS011;62266;53.348;-1.496;2023-08-17T06:51:50;16.50;;;8.60;;
73919;SDS011;62266;53.348;-1.496;2023-08-17T06:54:34;13.02;;;6.95;;
73919;SDS011;62266;53.348;-1.496;2023-08-17T06:57:19;9.88;;;7.03;;
73919;SDS011;62266;53.348;-1.496;2023-08-17T07:00:05;10.45;;;5.40;;
73919;SDS011;62266;53.348;-1.496;2023-08-17T07:02:50;9.00;;;4.70;;
73919;SDS011;62266;53.348;-1.496;2023-08-17T07:05:34;10.43;;;5.25;;
73919;SDS011;62266;53.348;-1.496;2023-08-17T07:08:18;11.65;;;5.25;;
73919;SDS011;62266;53.348;-1.496;2023-08-17T07:11:02;8.13;;;5.30;;
73919;SDS011;62266;53.348;-1.496;2023-08-17T07:13:49;9.00;;;5.05;;
73919;SDS011;62266;53.348;-1.496;2023-08-17T07:16:34;8.70;;;4.83;;
73919;SDS011;62266;53.348;-1.496;2023-08-17T07:19:18;11.63;;;4.85;;
73919;SDS011;62266;53.348;-1.496;2023-08-17T07:22:02;9.23;;;4.28;;
73919;SDS011;62266;53.348;-1.496;2023-08-17T07:24:46;8.68;;;4.80;;
73919;SDS011;62266;53.348;-1.496;2023-08-17T07:27:30;8.30;;;4.90;;
73919;SDS011;62266;53.348;-1.496;2023-08-17T07:30:14;7.47;;;4.90;;
73919;SDS011;62266;53.348;-1.496;2023-08-17T07:32:58;8.60;;;4.47;;
73919;SDS011;62266;53.348;-1.496;2023-08-17T07:35:43;7.55;;;4.85;;
73919;SDS011;62266;53.348;-1.496;2023-08-17T07:38:27;8.70;;;4.10;;
73919;SDS011;62266;53.348;-1.496;2023-08-17T07:41:11;6.82;;;4.35;;
73919;SDS011;62266;53.348;-1.496;2023-08-17T07:43:55;9.43;;;4.50;;
73919;SDS011;62266;53.348;-1.496;2023-08-17T07:46:39;9.02;;;4.60;;
73919;SDS011;62266;53.348;-1.496;2023-08-17T07:49:24;10.20;;;4.05;;
73919;SDS011;62266;53.348;-1.496;2023-08-17T07:52:09;6.57;;;3.72;;
73919;SDS011;62266;53.348;-1.496;2023-08-17T07:54:53;7.72;;;3.80;;
73919;SDS011;62266;53.348;-1.496;2023-08-17T07:57:37;8.63;;;3.97;;
73919;SDS011;62266;53.348;-1.496;2023-08-17T08:00:22;11.75;;;4.20;;
73919;SDS011;62266;53.348;-1.496;2023-08-17T08:03:06;8.90;;;3.88;;
73919;SDS011;62266;53.348;-1.496;2023-08-17T08:05:50;7.18;;;3.78;;
73919;SDS011;62266;53.348;-1.496;2023-08-17T08:08:34;7.00;;;3.08;;
73919;SDS011;62266;53.348;-1.496;2023-08-17T08:11:18;9.23;;;3.10;;
73919;SDS011;62266;53.348;-1.496;2023-08-17T08:14:05;5.90;;;3.63;;
73919;SDS011;62266;53.348;-1.496;2023-08-17T08:16:49;8.65;;;3.40;;
73919;SDS011;62266;53.348;-1.496;2023-08-17T08:19:34;5.90;;;3.00;;
73919;SDS011;62266;53.348;-1.496;2023-08-17T08:22:18;7.13;;;3.15;;
73919;SDS011;62266;53.348;-1.496;2023-08-17T08:25:02;4.40;;;2.70;;
73919;SDS011;62266;53.348;-1.496;2023-08-17T08:27:47;8.93;;;3.08;;
73919;SDS011;62266;53.348;-1.496;2023-08-17T08:30:31;4.50;;;3.05;;
73919;SDS011;62266;53.348;-1.496;2023-08-17T08:33:15;5.20;;;2.92;;
73919;SDS011;62266;53.348;-1.496;2023-08-17T08:35:59;5.88;;;3.00;;
73919;SDS011;62266;53.348;-1.496;2023-08-17T08:38:43;6.47;;;3.10;;
73919;SDS011;62266;53.348;-1.496;2023-08-17T08:41:27;6.60;;;2.90;;
73919;SDS011;62266;53.348;-1.496;2023-08-17T08:44:13;9.60;;;3.10;;
73919;SDS011;62266;53.348;-1.496;2023-08-17T08:46:57;6.82;;;2.90;;
73919;SDS011;62266;53.348;-1.496;2023-08-17T08:49:49;6.22;;;3.28;;
73919;SDS011;62266;53.348;-1.496;2023-08-17T08:52:42;7.87;;;3.03;;
73919;SDS011;62266;53.348;-1.496;2023-08-17T08:55:29;5.32;;;3.13;;
73919;SDS011;62266;53.348;-1.496;2023-08-17T08:58:18;5.93;;;2.75;;
73919;SDS011;62266;53.348;-1.496;2023-08-17T09:01:06;6.97;;;3.25;;
73919;SDS011;62266;53.348;-1.496;2023-08-17T09:03:51;7.15;;;3.00;;
73919;SDS011;62266;53.348;-1.496;2023-08-17T09:06:36;5.90;;;3.00;;
73919;SDS011;62266;53.348;-1.496;2023-08-17T09:09:22;5.40;;;3.42;;
73919;SDS011;62266;53.348;-1.496;2023-08-17T09:12:07;4.53;;;3.03;;
73919;SDS011;62266;53.348;-1.496;2023-08-17T09:14:52;4.97;;;2.92;;
73919;SDS011;62266;53.348;-1.496;2023-08-17T09:17:36;6.43;;;3.30;;
73919;SDS011;62266;53.348;-1.496;2023-08-17T09:20:35;5.07;;;3.03;;
73919;SDS011;62266;53.348;-1.496;2023-08-17T09:23:38;7.03;;;2.67;;
73919;SDS011;62266;53.348;-1.496;2023-08-17T09:26:23;5.15;;;3.17;;
73919;SDS011;62266;53.348;-1.496;2023-08-17T09:29:20;4.90;;;2.80;;
73919;SDS011;62266;53.348;-1.496;2023-08-17T09:32:04;7.07;;;3.63;;
73919;SDS011;62266;53.348;-1.496;2023-08-17T09:34:50;6.20;;;2.93;;
73919;SDS011;62266;53.348;-1.496;2023-08-17T09:37:34;4.95;;;2.30;;
73919;SDS011;62266;53.348;-1.496;2023-08-17T09:40:19;5.38;;;2.63;;
73919;SDS011;62266;53.348;-1.496;2023-08-17T09:43:03;3.72;;;2.30;;
73919;SDS011;62266;53.348;-1.496;2023-08-17T09:45:48;3.92;;;2.33;;
73919;SDS011;62266;53.348;-1.496;2023-08-17T09:48:33;4.27;;;2.03;;
73919;SDS011;62266;53.348;-1.496;2023-08-17T09:51:17;3.25;;;1.77;;
73919;SDS011;62266;53.348;-1.496;2023-08-17T09:54:01;3.95;;;1.98;;
73919;SDS011;62266;53.348;-1.496;2023-08-17T09:56:45;4.82;;;1.38;;
73919;SDS011;62266;53.348;-1.496;2023-08-17T09:59:29;4.15;;;1.75;;
73919;SDS011;62266;53.348;-1.496;2023-08-17T10:02:17;3.13;;;1.57;;
73919;SDS011;62266;53.348;-1.496;2023-08-17T10:05:05;4.20;;;1.55;;
73919;SDS011;62266;53.348;-1.496;2023-08-17T10:07:53;5.13;;;1.52;;
73919;SDS011;62266;53.348;-1.496;2023-08-17T10:14:04;4.15;;;1.77;;
73919;SDS011;62266;53.348;-1.496;2023-08-17T10:16:57;2.17;;;1.50;;
73919;SDS011;62266;53.348;-1.496;2023-08-17T10:19:46;5.28;;;1.73;;
73919;SDS011;62266;53.348;-1.496;2023-08-17T10:22:43;3.55;;;1.58;;
73919;SDS011;62266;53.348;-1.496;2023-08-17T10:25:33;3.67;;;1.70;;
73919;SDS011;62266;53.348;-1.496;2023-08-17T10:28:17;3.03;;;1.60;;
73919;SDS011;62266;53.348;-1.496;2023-08-17T10:31:02;4.03;;;1.47;;
73919;SDS011;62266;53.348;-1.496;2023-08-17T10:33:46;4.30;;;1.88;;
73919;SDS011;62266;53.348;-1.496;2023-08-17T10:36:32;3.42;;;1.80;;
73919;SDS011;62266;53.348;-1.496;2023-08-17T10:39:20;3.13;;;1.50;;
73919;SDS011;62266;53.348;-1.496;2023-08-17T10:42:07;3.33;;;1.60;;
73919;SDS011;62266;53.348;-1.496;2023-08-17T10:44:51;4.50;;;1.90;;
73919;SDS011;62266;53.348;-1.496;2023-08-17T10:47:35;4.22;;;1.60;;
73919;SDS011;62266;53.348;-1.496;2023-08-17T10:50:21;2.88;;;1.83;;
73919;SDS011;62266;53.348;-1.496;2023-08-17T10:53:13;5.22;;;2.05;;
73919;SDS011;62266;53.348;-1.496;2023-08-17T10:56:13;5.95;;;2.65;;
73919;SDS011;62266;53.348;-1.496;2023-08-17T10:59:01;7.83;;;2.97;;
73919;SDS011;62266;53.348;-1.496;2023-08-17T11:01:45;5.25;;;2.63;;
73919;SDS011;62266;53.348;-1.496;2023-08-17T11:04:35;8.48;;;2.58;;
73919;SDS011;62266;53.348;-1.496;2023-08-17T11:07:19;4.32;;;2.40;;
73919;SDS011;62266;53.348;-1.496;2023-08-17T11:13:03;3.90;;;1.70;;
73919;SDS011;62266;53.348;-1.496;2023-08-17T11:15:48;6.15;;;1.85;;
73919;SDS011;62266;53.348;-1.496;2023-08-17T11:18:32;3.63;;;1.83;;
73919;SDS011;62266;53.348;-1.496;2023-08-17T11:21:17;3.42;;;1.58;;
73919;SDS011;62266;53.348;-1.496;2023-08-17T11:24:01;5.80;;;2.05;;
73919;SDS011;62266;53.348;-1.496;2023-08-17T11:26:46;3.83;;;1.77;;
73919;SDS011;62266;53.348;-1.496;2023-08-17T11:29:31;3.85;;;1.73;;
73919;SDS011;62266;53.348;-1.496;2023-08-17T11:32:16;2.83;;;1.52;;
73919;SDS011;62266;53.348;-1.496;2023-08-17T11:35:01;4.63;;;1.50;;
73919;SDS011;62266;53.348;-1.496;2023-08-17T11:37:46;3.92;;;1.50;;
73919;SDS011;62266;53.348;-1.496;2023-08-17T11:40:32;4.93;;;1.23;;
73919;SDS011;62266;53.348;-1.496;2023-08-17T11:43:16;5.15;;;1.70;;
73919;SDS011;62266;53.348;-1.496;2023-08-17T11:46:01;2.88;;;1.65;;
73919;SDS011;62266;53.348;-1.496;2023-08-17T11:48:46;3.88;;;1.40;;
73919;SDS011;62266;53.348;-1.496;2023-08-17T11:51:30;3.53;;;1.30;;
73919;SDS011;62266;53.348;-1.496;2023-08-17T11:54:15;4.70;;;1.43;;
73919;SDS011;62266;53.348;-1.496;2023-08-17T11:56:59;4.13;;;1.33;;
73919;SDS011;62266;53.348;-1.496;2023-08-17T11:59:43;3.03;;;1.27;;
73919;SDS011;62266;53.348;-1.496;2023-08-17T12:02:27;5.32;;;1.20;;
73919;SDS011;62266;53.348;-1.496;2023-08-17T12:05:12;3.10;;;1.38;;
73919;SDS011;62266;53.348;-1.496;2023-08-17T12:07:56;4.87;;;1.50;;
73919;SDS011;62266;53.348;-1.496;2023-08-17T12:10:40;2.03;;;1.20;;
73919;SDS011;62266;53.348;-1.496;2023-08-17T12:13:33;3.33;;;1.08;;
73919;SDS011;62266;53.348;-1.496;2023-08-17T12:16:18;1.90;;;1.20;;
73919;SDS011;62266;53.348;-1.496;2023-08-17T12:19:04;3.38;;;1.63;;
73919;SDS011;62266;53.348;-1.496;2023-08-17T12:21:48;3.87;;;1.30;;
73919;SDS011;62266;53.348;-1.496;2023-08-17T12:24:32;2.80;;;1.17;;
73919;SDS011;62266;53.348;-1.496;2023-08-17T12:27:18;6.10;;;1.42;;
73919;SDS011;62266;53.348;-1.496;2023-08-17T12:30:02;3.83;;;1.25;;
73919;SDS011;62266;53.348;-1.496;2023-08-17T12:32:47;2.83;;;1.45;;
73919;SDS011;62266;53.348;-1.496;2023-08-17T12:35:31;4.83;;;1.10;;
73919;SDS011;62266;53.348;-1.496;2023-08-17T12:38:15;4.13;;;1.40;;
73919;SDS011;62266;53.348;-1.496;2023-08-17T12:40:59;5.72;;;1.55;;
73919;SDS011;62266;53.348;-1.496;2023-08-17T12:43:43;3.38;;;1.40;;
73919;SDS011;62266;53.348;-1.496;2023-08-17T12:46:27;3.05;;;1.42;;
73919;SDS011;62266;53.348;-1.496;2023-08-17T12:49:16;2.83;;;1.17;;
73919;SDS011;62266;53.348;-1.496;2023-08-17T12:52:00;3.15;;;1.23;;
73919;SDS011;62266;53.348;-1.496;2023-08-17T12:54:44;3.25;;;1.17;;
73919;SDS011;62266;53.348;-1.496;2023-08-17T12:57:28;1.33;;;1.13;;
73919;SDS011;62266;53.348;-1.496;2023-08-17T13:00:12;4.78;;;1.30;;
73919;SDS011;62266;53.348;-1.496;2023-08-17T13:02:56;3.10;;;1.00;;
73919;SDS011;62266;53.348;-1.496;2023-08-17T13:05:40;1.92;;;0.77;;
73919;SDS011;62266;53.348;-1.496;2023-08-17T13:08:24;1.83;;;1.00;;
73919;SDS011;62266;53.348;-1.496;2023-08-17T13:11:10;1.75;;;1.10;;
73919;SDS011;62266;53.348;-1.496;2023-08-17T13:13:54;2.60;;;1.23;;
73919;SDS011;62266;53.348;-1.496;2023-08-17T13:16:38;2.63;;;0.83;;
73919;SDS011;62266;53.348;-1.496;2023-08-17T13:19:22;2.63;;;1.10;;
73919;SDS011;62266;53.348;-1.496;2023-08-17T13:22:06;2.42;;;1.00;;
73919;SDS011;62266;53.348;-1.496;2023-08-17T13:24:50;2.20;;;0.82;;
73919;SDS011;62266;53.348;-1.496;2023-08-17T13:27:34;2.15;;;0.80;;
73919;SDS011;62266;53.348;-1.496;2023-08-17T13:30:18;1.53;;;0.80;;
73919;SDS011;62266;53.348;-1.496;2023-08-17T13:33:02;3.28;;;0.90;;
73919;SDS011;62266;53.348;-1.496;2023-08-17T13:35:46;3.28;;;0.80;;
73919;SDS011;62266;53.348;-1.496;2023-08-17T13:38:30;3.25;;;0.90;;
73919;SDS011;62266;53.348;-1.496;2023-08-17T13:41:15;2.00;;;0.93;;
73919;SDS011;62266;53.348;-1.496;2023-08-17T13:43:59;2.53;;;0.93;;
73919;SDS011;62266;53.348;-1.496;2023-08-17T13:46:44;1.92;;;0.80;;
73919;SDS011;62266;53.348;-1.496;2023-08-17T13:49:28;2.60;;;0.93;;
73919;SDS011;62266;53.348;-1.496;2023-08-17T13:52:12;3.38;;;0.90;;
73919;SDS011;62266;53.348;-1.496;2023-08-17T13:54:58;4.32;;;0.90;;
73919;SDS011;62266;53.348;-1.496;2023-08-17T13:57:42;3.87;;;0.93;;
73919;SDS011;62266;53.348;-1.496;2023-08-17T14:00:27;3.53;;;1.00;;
73919;SDS011;62266;53.348;-1.496;2023-08-17T14:03:11;2.90;;;0.88;;
73919;SDS011;62266;53.348;-1.496;2023-08-17T14:05:55;4.75;;;1.30;;
73919;SDS011;62266;53.348;-1.496;2023-08-17T14:08:40;1.98;;;1.00;;
73919;SDS011;62266;53.348;-1.496;2023-08-17T14:11:24;3.97;;;0.90;;
73919;SDS011;62266;53.348;-1.496;2023-08-17T14:14:08;2.88;;;1.00;;
73919;SDS011;62266;53.348;-1.496;2023-08-17T14:16:52;2.08;;;0.93;;
73919;SDS011;62266;53.348;-1.496;2023-08-17T14:19:36;1.42;;;0.90;;
73919;SDS011;62266;53.348;-1.496;2023-08-17T14:22:20;2.67;;;1.10;;
73919;SDS011;62266;53.348;-1.496;2023-08-17T14:25:04;2.50;;;1.03;;
73919;SDS011;62266;53.348;-1.496;2023-08-17T14:27:49;2.50;;;1.05;;
73919;SDS011;62266;53.348;-1.496;2023-08-17T14:30:33;1.52;;;0.95;;
73919;SDS011;62266;53.348;-1.496;2023-08-17T14:33:21;1.42;;;0.70;;
73919;SDS011;62266;53.348;-1.496;2023-08-17T14:36:05;3.38;;;0.80;;
73919;SDS011;62266;53.348;-1.496;2023-08-17T14:38:49;1.93;;;0.70;;
73919;SDS011;62266;53.348;-1.496;2023-08-17T14:41:33;2.60;;;0.85;;
73919;SDS011;62266;53.348;-1.496;2023-08-17T14:44:17;2.40;;;0.75;;
73919;SDS011;62266;53.348;-1.496;2023-08-17T14:47:01;4.85;;;1.02;;
73919;SDS011;62266;53.348;-1.496;2023-08-17T14:49:45;2.35;;;0.93;;
73919;SDS011;62266;53.348;-1.496;2023-08-17T14:52:29;2.67;;;0.60;;
73919;SDS011;62266;53.348;-1.496;2023-08-17T14:55:13;2.70;;;0.80;;
73919;SDS011;62266;53.348;-1.496;2023-08-17T14:57:57;3.03;;;1.05;;
73919;SDS011;62266;53.348;-1.496;2023-08-17T15:00:41;2.25;;;0.77;;
73919;SDS011;62266;53.348;-1.496;2023-08-17T15:03:26;2.90;;;0.80;;
73919;SDS011;62266;53.348;-1.496;2023-08-17T15:06:10;2.57;;;0.80;;
73919;SDS011;62266;53.348;-1.496;2023-08-17T15:08:54;2.95;;;0.80;;
73919;SDS011;62266;53.348;-1.496;2023-08-17T15:11:38;5.90;;;0.90;;
73919;SDS011;62266;53.348;-1.496;2023-08-17T15:14:22;2.80;;;0.80;;
73919;SDS011;62266;53.348;-1.496;2023-08-17T15:17:06;1.67;;;0.80;;
73919;SDS011;62266;53.348;-1.496;2023-08-17T15:19:53;3.00;;;0.90;;
73919;SDS011;62266;53.348;-1.496;2023-08-17T15:22:37;2.35;;;0.70;;
73919;SDS011;62266;53.348;-1.496;2023-08-17T15:25:21;1.98;;;0.68;;
73919;SDS011;62266;53.348;-1.496;2023-08-17T15:28:05;1.67;;;0.55;;
73919;SDS011;62266;53.348;-1.496;2023-08-17T15:30:50;1.75;;;0.63;;
73919;SDS011;62266;53.348;-1.496;2023-08-17T15:33:45;2.53;;;0.73;;
73919;SDS011;62266;53.348;-1.496;2023-08-17T15:36:29;1.98;;;0.70;;
73919;SDS011;62266;53.348;-1.496;2023-08-17T15:39:13;1.77;;;1.02;;
73919;SDS011;62266;53.348;-1.496;2023-08-17T15:41:57;2.70;;;0.90;;
73919;SDS011;62266;53.348;-1.496;2023-08-17T15:44:42;1.73;;;0.80;;
73919;SDS011;62266;53.348;-1.496;2023-08-17T15:47:26;3.20;;;0.70;;
73919;SDS011;62266;53.348;-1.496;2023-08-17T15:50:10;2.03;;;0.80;;
73919;SDS011;62266;53.348;-1.496;2023-08-17T15:52:54;1.85;;;0.68;;
73919;SDS011;62266;53.348;-1.496;2023-08-17T15:55:38;4.10;;;1.00;;
73919;SDS011;62266;53.348;-1.496;2023-08-17T15:58:22;2.92;;;0.90;;
73919;SDS011;62266;53.348;-1.496;2023-08-17T16:01:06;1.90;;;0.60;;
73919;SDS011;62266;53.348;-1.496;2023-08-17T16:03:50;2.55;;;0.70;;
73919;SDS011;62266;53.348;-1.496;2023-08-17T16:06:34;2.28;;;0.70;;
73919;SDS011;62266;53.348;-1.496;2023-08-17T16:09:20;2.38;;;0.65;;
73919;SDS011;62266;53.348;-1.496;2023-08-17T16:12:05;3.38;;;0.90;;
73919;SDS011;62266;53.348;-1.496;2023-08-17T16:14:49;4.40;;;0.80;;
73919;SDS011;62266;53.348;-1.496;2023-08-17T16:17:33;1.70;;;0.60;;